Time;durP1;ratioP1;P1;durP2;ratioP2;P2;SDS_P1;SDS_P2;PMS_P1;PMS_P2;Temp;Humidity;BMP_temperature;BMP_pressure;BME280_temperature;BME280_humidity;BME280_pressure;Samples;Min_cycle;Max_cycle;Signal;HPM_P1;HPM_P2
2023/01/26 00:01:43;;;;;;;0.77;0.77;;;;;;;0.83;100.00;102509.91;10420765;28;20057;-69
2023/01/26 00:06:44;;;;;;;1.08;1.08;;;;;;;0.81;100.00;102514.50;10419409;28;20029;-69
2023/01/26 00:11:44;;;;;;;1.00;1.00;;;;;;;0.82;100.00;102509.06;10419291;28;20417;-69
2023/01/26 00:16:44;;;;;;;2.55;2.47;;;;;;;0.85;100.00;102505.34;10418810;28;20045;-69
2023/01/26 00:21:45;;;;;;;7.75;2.88;;;;;;;0.91;100.00;102504.97;10420164;28;20072;-69
2023/01/26 00:26:45;;;;;;;0.75;0.75;;;;;;;0.93;100.00;102505.75;10420134;28;20042;-69
2023/01/26 00:31:46;;;;;;;0.82;0.82;;;;;;;0.96;100.00;102494.88;10421861;28;20068;-69
2023/01/26 00:36:46;;;;;;;0.63;0.63;;;;;;;0.91;100.00;102497.81;10417697;28;20094;-69
2023/01/26 00:42:05;;;;;;;0.90;0.90;;;;;;;0.93;100.00;102489.75;10418679;28;20033;-69
2023/01/26 00:47:06;;;;;;;1.30;1.30;;;;;;;0.93;100.00;102490.59;10418093;28;20063;-69
2023/01/26 00:52:06;;;;;;;3.22;3.13;;;;;;;0.91;100.00;102479.16;10417712;28;20029;-69
2023/01/26 00:57:07;;;;;;;1.23;1.23;;;;;;;0.95;100.00;102473.63;10418739;28;20029;-70
2023/01/26 01:02:07;;;;;;;1.38;1.38;;;;;;;0.95;100.00;102471.81;10433917;28;20540;-70
2023/01/26 01:07:09;;;;;;;0.70;0.70;;;;;;;0.96;100.00;102468.22;10418236;28;20037;-70
2023/01/26 01:12:10;;;;;;;0.90;0.90;;;;;;;0.95;100.00;102468.28;10417384;28;20061;-69
2023/01/26 01:17:10;;;;;;;1.00;1.00;;;;;;;0.98;100.00;102458.28;10417630;28;20116;-69
2023/01/26 01:22:11;;;;;;;1.60;1.60;;;;;;;1.03;100.00;102463.34;10416446;28;20046;-69
2023/01/26 01:27:11;;;;;;;1.92;1.83;;;;;;;1.04;100.00;102465.91;10400039;28;20033;-69
2023/01/26 01:32:11;;;;;;;1.83;1.83;;;;;;;1.04;100.00;102460.56;10419593;28;20469;-69
2023/01/26 01:37:12;;;;;;;0.60;0.60;;;;;;;1.11;100.00;102467.22;10416373;28;20468;-69
2023/01/26 01:42:13;;;;;;;1.02;1.02;;;;;;;1.17;100.00;102472.16;10416953;28;20366;-69
2023/01/26 01:47:18;;;;;;;5.10;2.58;;;;;;;1.24;100.00;102463.78;10414310;28;20573;-69
2023/01/26 01:52:26;;;;;;;8.70;2.70;;;;;;;1.26;100.00;102460.06;10415530;28;20521;-69
2023/01/26 01:57:43;;;;;;;1.00;1.00;;;;;;;1.24;100.00;102461.09;10415210;28;20029;-69
2023/01/26 02:03:09;;;;;;;1.35;1.25;;;;;;;1.30;100.00;102464.22;10400377;28;20458;-69
2023/01/26 02:08:05;;;;;;;1.88;1.88;;;;;;;1.32;100.00;102458.81;10401221;28;20091;-69
2023/01/26 02:13:06;;;;;;;1.70;1.70;;;;;;;1.32;100.00;102453.47;10414251;28;20184;-69
2023/01/26 02:18:07;;;;;;;0.90;0.90;;;;;;;1.34;100.00;102460.44;10415256;28;20030;-69
2023/01/26 02:23:29;;;;;;;3.42;3.22;;;;;;;1.39;100.00;102449.44;10430315;28;20131;-69
2023/01/26 02:28:29;;;;;;;0.82;0.82;;;;;;;1.41;100.00;102447.53;10414396;28;20453;-69
2023/01/26 02:33:30;;;;;;;3.58;3.28;;;;;;;1.43;100.00;102445.63;10414843;28;20033;-69
2023/01/26 02:38:42;;;;;;;3.08;2.97;;;;;;;1.47;100.00;102443.59;10414216;28;20449;-69
2023/01/26 02:43:43;;;;;;;1.30;1.30;;;;;;;1.54;100.00;102445.78;10397846;28;20026;-70
2023/01/26 02:54:02;;;;;;;1.42;1.42;;;;;;;1.65;100.00;102454.91;10415624;28;20042;-69
2023/01/26 02:59:02;;;;;;;2.45;2.33;;;;;;;1.64;100.00;102456.72;10416571;28;20112;-69
2023/01/26 03:04:03;;;;;;;0.80;0.80;;;;;;;1.69;100.00;102457.28;10422974;28;20452;-70
2023/01/26 03:09:03;;;;;;;1.08;1.08;;;;;;;1.69;100.00;102456.41;10423386;28;20079;-69
2023/01/26 03:14:04;;;;;;;0.85;0.85;;;;;;;1.78;100.00;102458.47;10438089;28;20140;-69
2023/01/26 03:29:43;;;;;;;1.02;1.02;;;;;;;1.82;100.00;102450.16;10421549;28;20041;-70
2023/01/26 03:34:54;;;;;;;1.75;1.65;;;;;;;1.90;100.00;102462.97;10421251;28;20029;-70
2023/01/26 04:01:18;;;;;;;0.85;0.85;;;;;;;1.96;100.00;102467.06;10420316;28;20386;-70
2023/01/26 04:11:38;;;;;;;3.15;3.05;;;;;;;2.09;100.00;102462.59;10418780;28;20033;-70
2023/01/26 04:22:00;;;;;;;6.78;6.40;;;;;;;2.09;100.00;102466.13;10419596;28;20038;-70
2023/01/26 04:27:01;;;;;;;0.60;0.60;;;;;;;2.07;100.00;102472.53;10419349;28;20037;-69
2023/01/26 04:32:01;;;;;;;2.13;2.03;;;;;;;2.11;100.00;102474.06;10418247;28;20068;-70
2023/01/26 04:37:02;;;;;;;0.93;0.93;;;;;;;2.17;100.00;102473.66;10418889;28;20037;-70
2023/01/26 04:42:02;;;;;;;3.58;3.38;;;;;;;2.20;100.00;102467.22;10418217;28;20069;-70
2023/01/26 04:47:02;;;;;;;2.05;1.73;;;;;;;2.26;100.00;102464.13;10417514;28;20374;-70
2023/01/26 04:52:03;;;;;;;1.25;1.25;;;;;;;2.33;100.00;102474.31;10417925;28;20120;-70
2023/01/26 04:57:04;;;;;;;1.13;1.13;;;;;;;2.43;100.00;102471.84;10418757;28;20074;-69
2023/01/26 05:02:04;;;;;;;1.70;1.70;;;;;;;2.50;100.00;102465.13;10420198;28;20051;-69
2023/01/26 05:07:04;;;;;;;3.05;2.95;;;;;;;2.58;100.00;102471.75;10419672;28;20038;-69
2023/01/26 05:17:24;;;;;;;3.20;3.03;;;;;;;2.73;100.00;102465.31;10416908;28;20467;-69
2023/01/26 05:22:24;;;;;;;1.13;1.13;;;;;;;2.79;100.00;102460.38;10415797;28;20037;-70
2023/01/26 05:27:25;;;;;;;1.33;1.33;;;;;;;2.89;100.00;102460.59;10416763;28;20080;-69
2023/01/26 05:32:26;;;;;;;0.95;0.95;;;;;;;3.01;100.00;102467.75;10417631;28;20112;-70
2023/01/26 05:37:27;;;;;;;5.78;5.47;;;;;;;3.08;100.00;102475.34;10431856;28;20038;-70
2023/01/26 05:42:28;;;;;;;0.77;0.77;;;;;;;3.15;100.00;102477.47;10416999;28;20033;-69
2023/01/26 05:47:28;;;;;;;0.70;0.70;;;;;;;3.25;100.00;102477.66;10415830;28;20488;-69
2023/01/26 05:52:28;;;;;;;3.92;3.63;;;;;;;3.38;100.00;102480.28;10415279;28;20121;-69
2023/01/26 05:57:29;;;;;;;1.00;1.00;;;;;;;3.55;100.00;102485.28;10417015;28;20128;-69
2023/01/26 06:02:29;;;;;;;1.23;1.23;;;;;;;3.64;100.00;102476.56;10347184;28;20119;-69
2023/01/26 06:07:30;;;;;;;0.90;0.90;;;;;;;3.82;100.00;102486.88;10415214;28;20124;-69
2023/01/26 06:12:34;;;;;;;0.50;0.50;;;;;;;3.91;100.00;102488.88;10413696;28;20057;-69
2023/01/26 06:17:34;;;;;;;0.70;0.70;;;;;;;4.01;100.00;102486.34;10415288;28;20037;-69
2023/01/26 06:22:35;;;;;;;0.80;0.80;;;;;;;4.15;100.00;102491.53;10415647;28;20095;-69
2023/01/26 06:27:35;;;;;;;7.65;7.00;;;;;;;4.26;100.00;102504.13;10430914;28;20042;-69
2023/01/26 06:32:36;;;;;;;4.75;4.45;;;;;;;4.36;100.00;102503.28;10414148;28;20194;-69
2023/01/26 06:37:36;;;;;;;0.60;0.60;;;;;;;4.41;100.00;102498.44;10414772;28;20033;-69
2023/01/26 06:42:37;;;;;;;0.60;0.60;;;;;;;4.53;100.00;102511.88;10415136;28;20535;-69
2023/01/26 06:47:37;;;;;;;0.98;0.98;;;;;;;4.65;100.00;102518.97;10414815;28;20088;-69
2023/01/26 06:52:38;;;;;;;0.60;0.60;;;;;;;4.76;100.00;102523.53;10415025;28;20060;-69
2023/01/26 06:57:38;;;;;;;1.50;1.50;;;;;;;4.82;100.00;102523.91;10430238;28;20123;-69
2023/01/26 07:02:39;;;;;;;2.20;2.05;;;;;;;4.87;100.00;102532.41;10414063;28;20065;-69
2023/01/26 07:07:39;;;;;;;0.60;0.60;;;;;;;4.95;100.00;102539.03;10413052;28;20049;-69
2023/01/26 07:12:44;;;;;;;0.70;0.70;;;;;;;5.00;100.00;102536.84;10414131;28;20096;-69
2023/01/26 07:17:45;;;;;;;7.88;3.15;;;;;;;5.00;100.00;102545.72;10415937;28;20034;-69
2023/01/26 07:22:45;;;;;;;0.45;0.45;;;;;;;5.02;100.00;102540.25;10414524;28;20116;-70
2023/01/26 07:27:45;;;;;;;1.20;1.20;;;;;;;4.79;100.00;102558.19;10413626;28;20041;-69
2023/01/26 07:32:46;;;;;;;0.50;0.50;;;;;;;4.65;100.00;102556.53;10414587;28;20038;-69
2023/01/26 07:37:46;;;;;;;0.50;0.50;;;;;;;4.49;100.00;102564.91;10414215;28;20033;-69
2023/01/26 07:42:47;;;;;;;0.50;0.50;;;;;;;4.46;100.00;102577.69;10413661;28;20047;-69
2023/01/26 07:47:47;;;;;;;0.50;0.50;;;;;;;4.41;100.00;102575.38;10416870;28;20057;-69
2023/01/26 07:52:48;;;;;;;0.50;0.50;;;;;;;4.31;100.00;102585.94;10420870;28;20030;-69
2023/01/26 07:57:48;;;;;;;2.58;1.98;;;;;;;4.30;100.00;102600.31;10453387;28;20573;-69
2023/01/26 08:02:49;;;;;;;0.60;0.60;;;;;;;4.27;100.00;102599.69;10420795;28;20079;-69
2023/01/26 08:07:50;;;;;;;0.43;0.43;;;;;;;4.20;100.00;102604.66;10420526;28;20046;-69
2023/01/26 08:12:50;;;;;;;0.60;0.60;;;;;;;4.16;100.00;102603.16;10420415;28;20077;-69
2023/01/26 08:17:52;;;;;;;0.60;0.60;;;;;;;4.10;100.00;102617.03;10419756;28;20087;-70
2023/01/26 08:22:52;;;;;;;0.95;0.95;;;;;;;4.27;100.00;102616.63;10419689;28;20148;-69
2023/01/26 08:27:53;;;;;;;0.70;0.70;;;;;;;4.95;100.00;102609.69;10418478;28;20037;-69
2023/01/26 08:32:54;;;;;;;1.45;1.45;;;;;;;5.51;100.00;102611.56;10419201;28;20124;-69
2023/01/26 08:37:54;;;;;;;0.50;0.50;;;;;;;5.96;100.00;102609.72;10418715;28;20091;-69
2023/01/26 08:42:55;;;;;;;1.02;1.02;;;;;;;6.37;100.00;102615.34;10418535;28;20034;-69
2023/01/26 08:47:55;;;;;;;0.40;0.40;;;;;;;6.63;100.00;102614.00;10450455;28;20037;-70
2023/01/26 08:52:56;;;;;;;0.70;0.70;;;;;;;6.84;100.00;102608.66;10433732;28;20466;-69
2023/01/26 08:57:56;;;;;;;0.70;0.70;;;;;;;7.11;100.00;102616.19;10417765;28;20519;-69
2023/01/26 09:02:58;;;;;;;1.25;1.25;;;;;;;7.43;100.00;102620.59;10417719;28;20469;-69
2023/01/26 09:07:59;;;;;;;0.30;0.30;;;;;;;7.09;100.00;102620.03;10418111;28;20115;-69
2023/01/26 09:12:59;;;;;;;0.70;0.70;;;;;;;7.15;100.00;102631.13;10417298;28;20619;-69
2023/01/26 09:18:00;;;;;;;0.70;0.70;;;;;;;7.83;100.00;102644.91;10433142;28;20120;-69
2023/01/26 09:23:00;;;;;;;0.85;0.85;;;;;;;7.23;100.00;102639.38;10417434;28;20033;-70
2023/01/26 09:28:01;;;;;;;0.50;0.50;;;;;;;7.31;100.00;102640.56;10415987;28;20057;-69
2023/01/26 09:33:02;;;;;;;0.50;0.50;;;;;;;7.90;100.00;102654.16;10449826;28;20068;-69
2023/01/26 09:38:03;;;;;;;0.70;0.70;;;;;;;8.33;100.00;102649.44;10417458;28;20026;-69
2023/01/26 09:43:29;;;;;;;0.50;0.50;;;;;;;9.06;100.00;102644.47;10416700;28;20041;-69
2023/01/26 09:49:10;;;;;;;0.60;0.60;;;;;;;9.47;100.00;102645.09;10448027;28;20163;-70
2023/01/26 09:54:17;;;;;;;20.35;5.72;;;;;;;9.49;100.00;102635.84;10438599;28;20314;-70
2023/01/26 09:59:38;;;;;;;26.45;7.25;;;;;;;9.65;100.00;102648.72;10448172;28;20366;-71
2023/01/26 10:04:41;;;;;;;19.17;5.60;;;;;;;9.81;100.00;102653.50;10416485;28;20172;-70
2023/01/26 10:09:44;;;;;;;20.25;5.88;;;;;;;9.72;100.00;102635.44;10416128;28;20033;-70
2023/01/26 10:15:03;;;;;;;32.88;5.80;;;;;;;9.85;100.00;102646.78;10446704;28;20095;-70
2023/01/26 10:20:31;;;;;;;15.43;4.40;;;;;;;9.97;100.00;102650.16;10415230;28;20041;-71
2023/01/26 10:25:36;;;;;;;18.13;5.47;;;;;;;10.17;100.00;102654.44;10414921;28;20389;-70
2023/01/26 10:30:38;;;;;;;23.52;4.38;;;;;;;10.27;100.00;102651.69;10413844;28;20029;-70
2023/01/26 10:35:38;;;;;;;27.65;4.97;;;;;;;10.17;100.00;102659.00;10414499;28;20331;-70
2023/01/26 10:40:43;;;;;;;19.30;4.85;;;;;;;10.44;100.00;102656.28;10446189;28;20105;-70
2023/01/26 10:45:45;;;;;;;17.63;4.68;;;;;;;10.57;100.00;102665.91;10429972;28;20021;-71
2023/01/26 10:50:46;;;;;;;11.98;4.72;;;;;;;10.62;100.00;102669.84;10446310;28;20025;-70
2023/01/26 10:56:12;;;;;;;15.43;3.70;;;;;;;10.22;100.00;102670.25;10414631;28;20120;-70
2023/01/26 11:01:15;;;;;;;11.27;4.88;;;;;;;9.41;100.00;102659.19;10429410;28;20037;-71
2023/01/26 11:06:16;;;;;;;15.32;5.28;;;;;;;8.98;100.00;102665.97;10446201;28;20045;-71
2023/01/26 11:11:25;;;;;;;16.98;4.40;;;;;;;9.34;100.00;102658.09;10413798;28;20030;-71
2023/01/26 11:16:26;;;;;;;15.10;4.18;;;;;;;10.12;100.00;102653.22;10414385;28;20144;-71
2023/01/26 11:21:45;;;;;;;9.23;2.78;;;;;;;10.98;100.00;102639.19;10416418;28;20033;-71
2023/01/26 11:26:58;;;;;;;14.45;3.83;;;;;;;10.98;100.00;102652.72;10421467;28;20053;-71
2023/01/26 11:32:23;;;;;;;11.35;3.40;;;;;;;11.56;100.00;102652.09;10420979;28;20358;-71
2023/01/26 11:37:30;;;;;;;8.07;3.45;;;;;;;11.03;100.00;102645.81;10420937;28;20527;-71
2023/01/26 11:42:34;;;;;;;13.70;4.22;;;;;;;10.24;100.00;102643.84;10453283;28;20044;-71
2023/01/26 11:47:43;;;;;;;18.60;4.40;;;;;;;9.74;100.00;102652.41;10421423;28;20436;-71
2023/01/26 11:53:16;;;;;;;14.77;3.65;;;;;;;9.27;100.00;102664.06;10435951;28;20131;-71
2023/01/26 11:58:43;;;;;;;23.35;4.95;;;;;;;8.82;100.00;102666.56;10420973;28;20116;-71
2023/01/26 12:03:45;;;;;;;13.50;4.50;;;;;;;8.57;100.00;102657.16;10420239;28;20084;-71
2023/01/26 12:08:51;;;;;;;10.25;3.25;;;;;;;8.55;100.00;102648.34;10435505;28;20030;-71
2023/01/26 12:14:00;;;;;;;9.55;2.88;;;;;;;8.61;100.00;102636.97;10418419;28;20049;-70
2023/01/26 12:19:20;;;;;;;11.82;3.65;;;;;;;9.03;100.00;102626.72;10452355;28;20049;-71
2023/01/26 12:24:33;;;;;;;12.60;4.75;;;;;;;9.09;100.00;102617.16;10448176;28;20037;-71
2023/01/26 12:30:11;;;;;;;18.73;5.40;;;;;;;8.74;100.00;102615.06;10434806;28;20402;-71
2023/01/26 12:35:12;;;;;;;13.07;4.78;;;;;;;8.50;100.00;102612.81;10430113;28;20029;-71
2023/01/26 12:40:35;;;;;;;11.63;3.88;;;;;;;8.89;100.00;102602.84;10419279;28;20040;-71
2023/01/26 12:45:39;;;;;;;13.30;4.25;;;;;;;9.17;100.00;102592.13;10418145;28;20132;-71
2023/01/26 12:50:43;;;;;;;16.95;3.95;;;;;;;9.69;100.00;102578.94;10450255;28;20033;-71
2023/01/26 12:55:53;;;;;;;18.45;4.97;;;;;;;9.41;100.00;102580.78;10433697;28;20026;-71
2023/01/26 13:01:01;;;;;;;11.07;4.95;;;;;;;9.19;100.00;102588.28;10418478;28;20462;-71
2023/01/26 13:06:07;;;;;;;9.13;3.85;;;;;;;8.70;100.00;102579.41;10450371;28;20155;-71
2023/01/26 13:11:08;;;;;;;7.72;4.13;;;;;;;8.51;100.00;102587.53;10416574;28;20036;-70
2023/01/26 13:16:14;;;;;;;17.88;4.97;;;;;;;8.27;100.00;102593.31;10450169;28;20049;-72
2023/01/26 13:21:36;;;;;;;14.82;4.60;;;;;;;8.16;100.00;102584.34;10417818;28;20044;-71
2023/01/26 13:26:41;;;;;;;14.07;5.68;;;;;;;8.20;100.00;102594.84;10417719;28;20354;-71
2023/01/26 13:31:41;;;;;;;9.27;3.58;;;;;;;8.36;100.00;102597.88;10432283;28;20079;-71
2023/01/26 13:36:42;;;;;;;16.30;4.13;;;;;;;8.28;100.00;102597.72;10432330;28;20543;-70
2023/01/26 13:41:45;;;;;;;22.42;4.43;;;;;;;8.10;100.00;102606.53;10414969;28;20032;-71
2023/01/26 13:46:57;;;;;;;6.75;2.30;;;;;;;8.11;100.00;102592.03;10414744;28;20131;-71
2023/01/26 13:51:57;;;;;;;13.55;3.95;;;;;;;8.20;100.00;102593.03;10431633;28;20029;-71
2023/01/26 13:56:59;;;;;;;8.52;2.80;;;;;;;8.13;100.00;102591.88;10415111;28;20168;-71
2023/01/26 14:01:59;;;;;;;11.02;4.28;;;;;;;8.11;100.00;102591.19;10417584;28;20061;-70
2023/01/26 14:07:08;;;;;;;21.88;3.72;;;;;;;8.06;100.00;102596.97;10415812;28;20033;-70
2023/01/26 14:12:15;;;;;;;17.25;4.32;;;;;;;8.01;100.00;102579.50;10447184;28;20458;-70
2023/01/26 14:17:25;;;;;;;13.40;4.10;;;;;;;8.01;100.00;102591.16;10430162;28;20030;-70
2023/01/26 14:22:26;;;;;;;15.35;3.58;;;;;;;8.05;100.00;102584.47;10383730;28;20461;-71
2023/01/26 14:27:31;;;;;;;8.65;3.45;;;;;;;7.84;100.00;102572.94;10373464;28;20124;-70
2023/01/26 14:32:32;;;;;;;6.30;2.10;;;;;;;7.86;100.00;102573.66;10374129;28;20084;-70
2023/01/26 14:37:32;;;;;;;13.77;3.13;;;;;;;7.97;100.00;102594.25;10374442;28;20467;-70
2023/01/26 14:42:33;;;;;;;13.15;4.32;;;;;;;7.86;100.00;102592.53;10389477;28;20037;-70
2023/01/26 14:47:33;;;;;;;25.45;4.72;;;;;;;7.77;100.00;102604.16;10372086;28;20041;-70
2023/01/26 14:52:37;;;;;;;16.60;4.38;;;;;;;7.62;100.00;102600.97;10389164;28;20084;-70
2023/01/26 14:57:37;;;;;;;6.78;2.33;;;;;;;7.61;100.00;102593.88;10378806;28;20033;-70
2023/01/26 15:02:42;;;;;;;4.07;2.72;;;;;;;7.52;100.00;102600.09;10380331;28;20041;-70
2023/01/26 15:07:44;;;;;;;5.63;2.63;;;;;;;7.51;100.00;102612.72;10380391;28;20026;-70
2023/01/26 15:12:45;;;;;;;6.97;2.88;;;;;;;7.45;100.00;102613.25;10381382;28;20414;-70
2023/01/26 15:17:46;;;;;;;15.90;3.83;;;;;;;7.37;100.00;102618.44;10381834;28;20041;-70
2023/01/26 15:22:51;;;;;;;3.97;2.33;;;;;;;7.34;100.00;102621.41;10380194;28;20613;-70
2023/01/26 15:27:58;;;;;;;8.50;3.78;;;;;;;7.28;100.00;102616.59;10380943;28;20088;-70
2023/01/26 15:32:59;;;;;;;24.85;3.50;;;;;;;7.18;100.00;102621.94;10380655;28;20045;-70
2023/01/26 15:38:10;;;;;;;24.00;3.25;;;;;;;7.10;100.00;102617.19;10396342;28;20065;-70
2023/01/26 15:43:14;;;;;;;9.25;3.60;;;;;;;6.99;100.00;102628.88;10395833;28;20045;-70
2023/01/26 15:48:14;;;;;;;6.05;2.28;;;;;;;6.88;100.00;102641.56;10379994;28;20128;-70
2023/01/26 15:53:18;;;;;;;18.27;4.18;;;;;;;6.83;100.00;102635.69;10395039;28;20528;-70
2023/01/26 15:58:19;;;;;;;13.88;3.00;;;;;;;6.72;100.00;102648.22;10378605;28;20104;-70
2023/01/26 16:03:20;;;;;;;4.60;2.20;;;;;;;6.67;100.00;102650.47;10395234;28;20520;-70
2023/01/26 16:08:20;;;;;;;8.20;2.60;;;;;;;6.67;100.00;102657.72;10377933;28;20038;-70
2023/01/26 16:13:21;;;;;;;7.53;2.47;;;;;;;6.66;100.00;102639.81;10380346;28;20405;-70
2023/01/26 16:18:21;;;;;;;4.15;2.47;;;;;;;6.74;100.00;102648.97;10382067;28;20562;-70
2023/01/26 16:23:23;;;;;;;11.98;3.22;;;;;;;6.68;100.00;102644.09;10378954;28;20041;-70
2023/01/26 16:28:24;;;;;;;8.70;3.03;;;;;;;6.72;100.00;102645.53;10377686;28;20399;-70
2023/01/26 16:33:24;;;;;;;7.90;2.70;;;;;;;6.70;100.00;102650.22;10378238;28;20040;-70
2023/01/26 16:38:25;;;;;;;17.65;4.25;;;;;;;6.59;100.00;102668.25;10377109;28;20049;-70
2023/01/26 16:43:28;;;;;;;8.55;3.00;;;;;;;6.27;100.00;102651.09;10379245;28;20037;-69
2023/01/26 16:48:33;;;;;;;13.60;2.47;;;;;;;5.95;100.00;102655.56;10376792;28;20045;-70
2023/01/26 16:53:34;;;;;;;17.58;4.13;;;;;;;5.92;100.00;102639.66;10376762;28;20116;-69
2023/01/26 16:58:35;;;;;;;9.15;2.83;;;;;;;5.97;100.00;102648.25;10377625;28;20030;-70
2023/01/26 17:03:35;;;;;;;9.43;2.55;;;;;;;6.07;100.00;102637.59;10378242;28;20438;-69
2023/01/26 17:08:35;;;;;;;12.20;3.65;;;;;;;6.13;100.00;102650.53;10377343;28;20030;-69
2023/01/26 17:13:36;;;;;;;10.93;4.30;;;;;;;6.23;100.00;102644.25;10375791;28;20053;-70
2023/01/26 17:18:36;;;;;;;5.22;2.72;;;;;;;6.22;100.00;102642.56;10376189;28;20080;-69
2023/01/26 17:23:40;;;;;;;3.85;2.33;;;;;;;6.20;100.00;102622.16;10376110;28;20065;-70
2023/01/26 17:28:40;;;;;;;11.90;3.55;;;;;;;6.27;100.00;102634.94;10376584;28;20057;-70
2023/01/26 17:33:41;;;;;;;10.90;2.80;;;;;;;6.27;100.00;102634.94;10376219;28;20088;-69
2023/01/26 17:38:41;;;;;;;23.70;4.30;;;;;;;6.35;100.00;102639.72;10376945;28;20042;-69
2023/01/26 17:43:42;;;;;;;9.63;3.63;;;;;;;6.43;100.00;102650.69;10390878;28;20034;-69
2023/01/26 17:48:42;;;;;;;15.13;3.88;;;;;;;6.41;100.00;102644.56;10390635;28;20107;-69
2023/01/26 17:53:44;;;;;;;7.78;2.60;;;;;;;6.47;100.00;102638.66;10373646;28;20452;-69
2023/01/26 17:59:03;;;;;;;8.65;2.53;;;;;;;6.45;100.00;102643.34;10375506;28;20113;-69
2023/01/26 18:04:03;;;;;;;8.63;3.30;;;;;;;6.46;100.00;102649.56;10374415;28;20481;-70
2023/01/26 18:09:04;;;;;;;12.35;3.42;;;;;;;6.43;100.00;102649.81;10390270;28;20100;-69
2023/01/26 18:14:05;;;;;;;19.08;3.67;;;;;;;6.38;100.00;102647.53;10374712;28;20057;-69
2023/01/26 18:19:05;;;;;;;18.40;3.70;;;;;;;6.43;100.00;102650.69;10374585;28;20041;-69
2023/01/26 18:24:06;;;;;;;5.05;2.08;;;;;;;6.46;100.00;102650.41;10374901;28;20120;-70
2023/01/26 18:29:07;;;;;;;13.65;4.55;;;;;;;6.42;100.00;102650.81;10378741;28;20466;-70
2023/01/26 18:34:09;;;;;;;9.82;2.60;;;;;;;6.42;100.00;102648.13;10375282;28;20117;-69
2023/01/26 18:39:11;;;;;;;18.60;4.38;;;;;;;6.40;100.00;102650.94;10373636;28;20038;-69
2023/01/26 18:44:12;;;;;;;9.88;2.55;;;;;;;6.32;100.00;102668.69;10373140;28;20037;-69
2023/01/26 18:49:12;;;;;;;8.98;2.40;;;;;;;6.31;100.00;102662.44;10373726;28;20038;-69
2023/01/26 18:54:14;;;;;;;9.02;3.05;;;;;;;6.31;100.00;102667.84;10374167;28;20034;-69
2023/01/26 18:59:15;;;;;;;14.10;3.30;;;;;;;6.23;100.00;102663.09;10372770;28;20033;-69
2023/01/26 19:04:16;;;;;;;8.65;3.45;;;;;;;6.23;100.00;102664.94;10372747;28;20038;-69
2023/01/26 19:09:16;;;;;;;11.32;2.70;;;;;;;6.23;100.00;102667.63;10372755;28;20037;-69
2023/01/26 19:14:16;;;;;;;7.18;2.20;;;;;;;6.26;100.00;102667.38;10373886;28;20069;-69
2023/01/26 19:19:17;;;;;;;11.65;2.90;;;;;;;6.23;100.00;102671.16;10373392;28;20462;-69
2023/01/26 19:24:17;;;;;;;8.25;2.50;;;;;;;6.24;100.00;102659.41;10373587;28;20058;-69
2023/01/26 19:29:18;;;;;;;8.07;3.35;;;;;;;6.24;100.00;102653.19;10373502;28;20368;-69
2023/01/26 19:34:18;;;;;;;5.85;3.15;;;;;;;6.24;100.00;102655.88;10373573;28;20033;-69
2023/01/26 19:39:18;;;;;;;7.80;3.03;;;;;;;6.19;100.00;102664.34;10372120;28;20034;-69
2023/01/26 19:44:19;;;;;;;14.95;4.15;;;;;;;6.20;100.00;102657.97;10377263;28;20064;-69
2023/01/26 19:49:20;;;;;;;14.10;3.85;;;;;;;6.22;100.00;102661.41;10445902;28;20136;-69
2023/01/26 19:54:20;;;;;;;9.20;3.58;;;;;;;6.20;100.00;102651.72;10419478;28;20081;-69
2023/01/26 19:59:21;;;;;;;12.75;3.17;;;;;;;6.24;100.00;102653.19;10419594;28;20044;-69
2023/01/26 20:04:21;;;;;;;11.02;2.70;;;;;;;6.21;100.00;102656.13;10419776;28;20094;-69
2023/01/26 20:09:22;;;;;;;15.85;4.18;;;;;;;6.23;100.00;102657.72;10418249;28;20080;-69
2023/01/26 20:14:22;;;;;;;23.42;4.20;;;;;;;6.21;100.00;102650.75;10400662;28;20474;-68
2023/01/26 20:19:22;;;;;;;21.75;4.57;;;;;;;6.19;100.00;102644.63;10416254;28;20041;-70
2023/01/26 20:24:23;;;;;;;8.07;2.20;;;;;;;6.17;100.00;102649.28;10417546;28;20041;-69
2023/01/26 20:29:23;;;;;;;22.08;3.22;;;;;;;6.18;100.00;102661.75;10418442;28;20061;-69
2023/01/26 20:34:24;;;;;;;16.95;4.90;;;;;;;6.13;100.00;102642.47;10417256;28;20033;-69
2023/01/26 20:39:24;;;;;;;8.50;4.25;;;;;;;6.06;100.00;102644.78;10417439;28;20068;-69
2023/01/26 20:44:25;;;;;;;7.05;3.92;;;;;;;5.99;100.00;102647.09;10401866;28;20072;-69
2023/01/26 20:49:25;;;;;;;11.85;3.75;;;;;;;5.91;100.00;102646.00;10418696;28;20095;-69
2023/01/26 20:54:25;;;;;;;17.73;4.03;;;;;;;5.86;100.00;102650.88;10419277;28;20374;-69
2023/01/26 20:59:26;;;;;;;14.82;4.35;;;;;;;5.75;100.00;102643.69;10417959;28;20033;-70
2023/01/26 21:04:29;;;;;;;13.25;3.85;;;;;;;5.73;100.00;102649.19;10417358;28;20112;-69
2023/01/26 21:09:30;;;;;;;11.27;4.70;;;;;;;5.65;100.00;102650.75;10417136;28;20041;-72
2023/01/26 21:14:31;;;;;;;18.23;4.38;;;;;;;5.51;100.00;102655.41;10398753;28;20506;-69
2023/01/26 21:19:31;;;;;;;16.50;5.72;;;;;;;5.48;100.00;102652.97;10415960;28;20042;-69
2023/01/26 21:24:33;;;;;;;18.35;4.10;;;;;;;5.49;100.00;102643.94;10416952;28;20088;-70
2023/01/26 21:29:33;;;;;;;14.52;3.78;;;;;;;5.43;100.00;102633.69;10416087;28;20037;-69
2023/01/26 21:34:34;;;;;;;17.73;4.40;;;;;;;5.20;100.00;102642.66;10416104;28;20033;-69
2023/01/26 21:39:34;;;;;;;14.85;4.55;;;;;;;5.03;100.00;102652.03;10415845;28;20037;-69
2023/01/26 21:45:51;;;;;;;16.05;5.20;;;;;;;4.89;100.00;102645.06;10416834;28;20029;-69
2023/01/26 21:49:57;;;;;;;17.17;5.30;;;;;;;4.69;100.00;102645.69;10415371;28;20041;-69
2023/01/26 21:54:57;;;;;;;17.35;4.20;;;;;;;4.59;100.00;102657.13;10416498;28;20116;-69
2023/01/26 21:59:58;;;;;;;20.60;5.50;;;;;;;4.54;100.00;102648.59;10415933;28;20537;-69
2023/01/26 22:04:58;;;;;;;19.08;5.45;;;;;;;4.85;100.00;102651.63;10397540;28;20040;-69
2023/01/26 22:09:58;;;;;;;26.88;5.63;;;;;;;5.10;100.00;102647.91;10414966;28;20045;-69
2023/01/26 22:14:59;;;;;;;24.02;6.90;;;;;;;5.21;100.00;102644.41;10415909;28;20058;-69
2023/01/26 22:19:59;;;;;;;16.90;6.70;;;;;;;5.31;100.00;102648.94;10414544;28;20600;-69
2023/01/26 22:25:00;;;;;;;16.85;4.82;;;;;;;5.39;100.00;102642.94;10414889;28;20034;-69
2023/01/26 22:30:00;;;;;;;30.10;4.60;;;;;;;5.46;100.00;102635.28;10414023;28;20041;-69
2023/01/26 22:35:01;;;;;;;29.92;6.35;;;;;;;5.51;100.00;102638.44;10415322;28;20036;-69
2023/01/26 22:40:01;;;;;;;17.77;5.25;;;;;;;5.53;100.00;102636.50;10415221;28;20040;-69
2023/01/26 22:45:01;;;;;;;17.55;5.43;;;;;;;5.54;100.00;102635.50;10415401;28;20171;-69
2023/01/26 22:50:02;;;;;;;25.45;6.60;;;;;;;5.57;100.00;102640.63;10447485;28;20041;-69
2023/01/26 22:55:03;;;;;;;19.20;6.03;;;;;;;5.50;100.00;102644.78;10415111;28;20085;-69
2023/01/26 23:00:04;;;;;;;14.60;5.22;;;;;;;5.53;100.00;102649.94;10417798;28;20048;-69
2023/01/26 23:05:05;;;;;;;7.30;3.65;;;;;;;5.50;100.00;102647.47;10413850;28;20454;-69
2023/01/26 23:10:06;;;;;;;10.75;4.72;;;;;;;5.60;100.00;102643.09;10413496;28;20041;-69
2023/01/26 23:15:07;;;;;;;30.42;6.82;;;;;;;5.64;100.00;102639.16;10413610;28;20493;-69
2023/01/26 23:20:08;;;;;;;12.18;4.32;;;;;;;5.67;100.00;102636.22;10422224;28;20046;-69
2023/01/26 23:30:27;;;;;;;18.65;4.25;;;;;;;5.71;100.00;102637.72;10421827;28;20065;-69
2023/01/26 23:35:28;;;;;;;15.15;6.22;;;;;;;5.76;100.00;102637.34;10422272;28;20076;-70
2023/01/26 23:40:28;;;;;;;14.57;4.65;;;;;;;5.77;100.00;102623.75;10421958;28;20370;-69
2023/01/26 23:45:28;;;;;;;13.48;4.95;;;;;;;5.78;100.00;102627.31;10422028;28;20029;-69
2023/01/26 23:50:29;;;;;;;16.65;5.97;;;;;;;5.83;100.00;102635.84;10420422;28;20029;-69
2023/01/26 23:55:29;;;;;;;23.75;5.53;;;;;;;5.82;100.00;102624.25;10421691;28;20393;-69
